Terminal Aerodrome Forecast
Issued by NWS Charleston, WV

Current Version | Previous Version | Graphics & Text | Print | Product List | Glossary On
Versions: 1 2 3 4 5 6 7 8 9 10 11 12 13 14 15 16 17 18 19 20 21 22 23 24 25 26 27
000
FTUS41 KRLX 221100
TAFBKW
TAF
KBKW 221138Z 2212/2312 31006KT P6SM SCT020 OVC035
      TEMPO 2212/2213 BKN015
     FM221300 31004KT P6SM BKN012
     FM221700 33006KT P6SM BKN025
     FM222000 33007KT P6SM SCT035
     FM230000 VRB03KT P6SM FEW035=

USA.gov is the U.S. government's official web portal to all federal, state and local government web resources and services.